• Join FlightAware (Why Join?)
  • Login
  • US Flag 
10:30PM EDT


 

Airport Tracker/Info


-or-


 

Live Flight TrackerFlight Track Log ✈ VNR189 ✈ 06-May-2012 ✈ KSFB - KPBI

Flight Track Log - Related Links

Times and Time Zones

All times are in EDT time to prevent confusion due to time zone crossing. See the VNR189 flight status page for this flight to view local times or setup timezone preferences in your user account.

Time Position Orientation Groundspeed Altitude Reporting Facility
EDT Latitude Longitude Course Direction KTS MPH feet Rate Location/Type
02:17PM 28.7833 -81.2667 180° South 141 162 600  Level Orlando TRACON
02:18PM 28.7333 -81.2667 127° Southeast 206 237 2,000 1,080 Climbing Orlando TRACON
02:19PM 28.7000 -81.2167 120° Southeast 218 251 3,200 1,740 Climbing Orlando TRACON
02:20PM 28.6667 -81.1500 150° Southeast 218 251 5,500 2,220 Climbing Orlando TRACON
02:21PM 28.6167 -81.1167 139° Southeast 213 245 7,500 2,220 Climbing Orlando TRACON
02:22PM 28.5667 -81.0667 150° Southeast 220 253 9,800 2,160 Climbing Orlando TRACON
02:23PM 28.5167 -81.0333 141° Southeast 236 272 11,900 1,380 Climbing Orlando TRACON
02:25PM 28.3956 -80.9228 139° Southeast 270 311 14,000 660 Climbing Miami Center
02:26PM 28.3306 -80.8592 149° Southeast 296 341 14,000  Level Miami Center
02:27PM 28.2506 -80.8044 148° Southeast 325 374 14,000  Level Miami Center
02:28PM 28.1750 -80.7500 148° Southeast 330 380 14,000  Level Miami Center
02:29PM 28.0992 -80.6956 147° Southeast 325 374 14,000  Level Miami Center
02:30PM 28.0317 -80.6461 146° Southeast 320 368 14,000 -120 Level Miami Center
02:31PM 27.9600 -80.5919 148° Southeast 314 361 13,800 -780 Descending Miami Center
02:32PM 27.8758 -80.5331 145° Southeast 319 367 12,500 -1,200 Descending Miami Center
02:33PM 27.8042 -80.4767 149° Southeast 314 361 11,500 -1,020 Descending Miami Center
02:34PM 27.7303 -80.4275 145° Southeast 314 361 10,500 -780 Descending Miami Center
02:35PM 27.6708 -80.3811 149° Southeast 308 354 10,000 -300 Descending Miami Center
02:36PM 27.6011 -80.3344 148° Southeast 298 343 10,000  Level Miami Center
02:37PM 27.5211 -80.2781 148° Southeast 298 343 10,000 -300 Level Miami Center
02:38PM 27.4511 -80.2292 147° Southeast 298 343 9,500 -1,200 Descending Miami Center
02:39PM 27.3833 -80.1803 151° Southeast 298 343 7,600 -1,800 Descending Miami Center
02:40PM 27.3194 -80.1411 171° South 290 334 6,000 -840 Descending Miami Center
02:41PM 27.2467 -80.1275 156° South 269 310 6,000  Level Miami Center
02:42PM 27.1683 -80.0878 158° South 274 315 6,000 -360 Level Miami Center
02:43PM 27.1022 -80.0581 183° South 264 304 5,300 -840 Descending Miami Center
02:44PM 27.0269 -80.0631 192° South 264 304 4,400 -660 Descending Miami Center
02:45PM 26.9639 -80.0775 190° South 264 304 4,000 -240 Descending Miami Center
02:46PM 26.8822 -80.0939 194° South 274 315 4,000 -120 Level Miami Center
02:47PM 26.8128 -80.1131 184° South 269 310 3,800 -240 Descending Miami Center
02:55PM 26.6797 -80.1223 82° East  Level FlightAware Approximate
02:56PM 26.6909 -80.0363 240° Southwest  Level Estimated
02:57PM 26.6667 -80.0833 240° Southwest  Level FlightAware Approximate